sensor_id;sensor_type;location;lat;lon;timestamp;P1;durP1;ratioP1;P2;durP2;ratioP2
16693;SDS011;39538;52.196;9.892;2022-11-04T00:01:18;2.23;;;1.70;;
16693;SDS011;39538;52.196;9.892;2022-11-04T00:03:45;2.47;;;1.43;;
16693;SDS011;39538;52.196;9.892;2022-11-04T00:06:12;3.70;;;2.67;;
16693;SDS011;39538;52.196;9.892;2022-11-04T00:08:40;1.90;;;1.73;;
16693;SDS011;39538;52.196;9.892;2022-11-04T00:11:08;2.20;;;1.90;;
16693;SDS011;39538;52.196;9.892;2022-11-04T00:13:53;1.90;;;1.80;;
16693;SDS011;39538;52.196;9.892;2022-11-04T00:16:20;2.80;;;1.73;;
16693;SDS011;39538;52.196;9.892;2022-11-04T00:19:06;1.87;;;1.53;;
16693;SDS011;39538;52.196;9.892;2022-11-04T00:21:33;2.33;;;2.13;;
16693;SDS011;39538;52.196;9.892;2022-11-04T00:24:18;2.57;;;1.90;;
16693;SDS011;39538;52.196;9.892;2022-11-04T00:27:02;3.57;;;2.30;;
16693;SDS011;39538;52.196;9.892;2022-11-04T00:29:46;2.30;;;2.10;;
16693;SDS011;39538;52.196;9.892;2022-11-04T00:32:13;3.37;;;1.60;;
16693;SDS011;39538;52.196;9.892;2022-11-04T00:34:57;3.80;;;1.73;;
16693;SDS011;39538;52.196;9.892;2022-11-04T00:37:24;1.97;;;1.87;;
16693;SDS011;39538;52.196;9.892;2022-11-04T00:39:52;6.63;;;2.93;;
16693;SDS011;39538;52.196;9.892;2022-11-04T00:42:18;4.40;;;2.63;;
16693;SDS011;39538;52.196;9.892;2022-11-04T00:44:45;3.13;;;1.53;;
16693;SDS011;39538;52.196;9.892;2022-11-04T00:47:11;3.50;;;2.03;;
16693;SDS011;39538;52.196;9.892;2022-11-04T00:49:38;2.33;;;1.67;;
16693;SDS011;39538;52.196;9.892;2022-11-04T00:52:05;1.67;;;1.57;;
16693;SDS011;39538;52.196;9.892;2022-11-04T00:54:31;1.77;;;1.67;;
16693;SDS011;39538;52.196;9.892;2022-11-04T00:56:59;1.63;;;1.53;;
16693;SDS011;39538;52.196;9.892;2022-11-04T00:59:26;2.13;;;1.33;;
16693;SDS011;39538;52.196;9.892;2022-11-04T01:01:52;3.30;;;1.50;;
16693;SDS011;39538;52.196;9.892;2022-11-04T01:04:20;1.70;;;1.50;;
16693;SDS011;39538;52.196;9.892;2022-11-04T01:06:46;1.80;;;1.47;;
16693;SDS011;39538;52.196;9.892;2022-11-04T01:09:13;2.43;;;1.70;;
16693;SDS011;39538;52.196;9.892;2022-11-04T01:11:40;1.07;;;1.03;;
16693;SDS011;39538;52.196;9.892;2022-11-04T01:14:08;2.10;;;1.40;;
16693;SDS011;39538;52.196;9.892;2022-11-04T01:16:34;1.63;;;1.53;;
16693;SDS011;39538;52.196;9.892;2022-11-04T01:19:01;3.70;;;1.37;;
16693;SDS011;39538;52.196;9.892;2022-11-04T01:21:28;3.00;;;1.73;;
16693;SDS011;39538;52.196;9.892;2022-11-04T01:23:55;1.33;;;1.20;;
16693;SDS011;39538;52.196;9.892;2022-11-04T01:26:22;2.20;;;1.73;;
16693;SDS011;39538;52.196;9.892;2022-11-04T01:28:50;1.60;;;1.50;;
16693;SDS011;39538;52.196;9.892;2022-11-04T01:31:20;3.00;;;2.73;;
16693;SDS011;39538;52.196;9.892;2022-11-04T01:33:48;6.10;;;2.73;;
16693;SDS011;39538;52.196;9.892;2022-11-04T01:36:16;2.87;;;2.67;;
16693;SDS011;39538;52.196;9.892;2022-11-04T01:38:43;2.73;;;2.53;;
16693;SDS011;39538;52.196;9.892;2022-11-04T01:41:14;4.23;;;3.10;;
16693;SDS011;39538;52.196;9.892;2022-11-04T01:43:45;2.83;;;2.23;;
16693;SDS011;39538;52.196;9.892;2022-11-04T01:46:18;3.30;;;1.93;;
16693;SDS011;39538;52.196;9.892;2022-11-04T01:48:51;2.50;;;2.33;;
16693;SDS011;39538;52.196;9.892;2022-11-04T01:51:18;2.13;;;1.93;;
16693;SDS011;39538;52.196;9.892;2022-11-04T01:53:46;3.43;;;3.13;;
16693;SDS011;39538;52.196;9.892;2022-11-04T01:56:14;2.47;;;2.33;;
16693;SDS011;39538;52.196;9.892;2022-11-04T01:58:45;2.20;;;2.03;;
16693;SDS011;39538;52.196;9.892;2022-11-04T02:01:14;2.23;;;2.13;;
16693;SDS011;39538;52.196;9.892;2022-11-04T02:03:43;2.00;;;1.90;;
16693;SDS011;39538;52.196;9.892;2022-11-04T02:06:14;2.80;;;2.60;;
16693;SDS011;39538;52.196;9.892;2022-11-04T02:08:43;2.50;;;2.30;;
16693;SDS011;39538;52.196;9.892;2022-11-04T02:11:11;2.50;;;2.30;;
16693;SDS011;39538;52.196;9.892;2022-11-04T02:13:58;3.83;;;2.80;;
16693;SDS011;39538;52.196;9.892;2022-11-04T02:16:26;2.00;;;1.80;;
16693;SDS011;39538;52.196;9.892;2022-11-04T02:19:05;4.73;;;4.43;;
16693;SDS011;39538;52.196;9.892;2022-11-04T02:21:55;1.47;;;1.37;;
16693;SDS011;39538;52.196;9.892;2022-11-04T02:24:53;1.90;;;1.80;;
16693;SDS011;39538;52.196;9.892;2022-11-04T02:27:47;2.17;;;2.00;;
16693;SDS011;39538;52.196;9.892;2022-11-04T02:30:27;3.00;;;2.43;;
16693;SDS011;39538;52.196;9.892;2022-11-04T02:33:07;2.50;;;2.30;;
16693;SDS011;39538;52.196;9.892;2022-11-04T02:35:50;2.00;;;1.90;;
16693;SDS011;39538;52.196;9.892;2022-11-04T02:38:27;2.13;;;2.03;;
16693;SDS011;39538;52.196;9.892;2022-11-04T02:40:59;2.33;;;2.20;;
16693;SDS011;39538;52.196;9.892;2022-11-04T02:43:38;2.57;;;1.93;;
16693;SDS011;39538;52.196;9.892;2022-11-04T02:46:16;2.10;;;1.90;;
16693;SDS011;39538;52.196;9.892;2022-11-04T02:48:51;1.40;;;1.30;;
16693;SDS011;39538;52.196;9.892;2022-11-04T02:51:20;2.97;;;2.50;;
16693;SDS011;39538;52.196;9.892;2022-11-04T02:53:54;3.97;;;2.83;;
16693;SDS011;39538;52.196;9.892;2022-11-04T02:56:26;1.80;;;1.70;;
16693;SDS011;39538;52.196;9.892;2022-11-04T02:58:56;2.50;;;2.40;;
16693;SDS011;39538;52.196;9.892;2022-11-04T03:01:28;3.73;;;3.53;;
16693;SDS011;39538;52.196;9.892;2022-11-04T03:03:59;3.93;;;3.73;;
16693;SDS011;39538;52.196;9.892;2022-11-04T03:06:28;4.77;;;4.57;;
16693;SDS011;39538;52.196;9.892;2022-11-04T03:08:57;5.77;;;5.57;;
16693;SDS011;39538;52.196;9.892;2022-11-04T03:11:26;6.80;;;6.60;;
16693;SDS011;39538;52.196;9.892;2022-11-04T03:13:55;7.10;;;6.90;;
16693;SDS011;39538;52.196;9.892;2022-11-04T03:16:25;6.63;;;6.20;;
16693;SDS011;39538;52.196;9.892;2022-11-04T03:18:59;7.93;;;7.73;;
16693;SDS011;39538;52.196;9.892;2022-11-04T03:21:30;11.70;;;11.30;;
16693;SDS011;39538;52.196;9.892;2022-11-04T03:23:59;12.23;;;11.83;;
16693;SDS011;39538;52.196;9.892;2022-11-04T03:26:30;12.37;;;11.97;;
16693;SDS011;39538;52.196;9.892;2022-11-04T03:29:03;11.00;;;10.50;;
16693;SDS011;39538;52.196;9.892;2022-11-04T03:31:43;11.00;;;10.67;;
16693;SDS011;39538;52.196;9.892;2022-11-04T03:34:14;11.13;;;10.83;;
16693;SDS011;39538;52.196;9.892;2022-11-04T03:36:41;9.87;;;9.57;;
16693;SDS011;39538;52.196;9.892;2022-11-04T03:39:08;8.57;;;8.37;;
16693;SDS011;39538;52.196;9.892;2022-11-04T03:41:35;8.17;;;7.97;;
16693;SDS011;39538;52.196;9.892;2022-11-04T03:44:06;6.47;;;6.27;;
16693;SDS011;39538;52.196;9.892;2022-11-04T03:46:33;5.63;;;5.43;;
16693;SDS011;39538;52.196;9.892;2022-11-04T03:49:01;5.57;;;5.37;;
16693;SDS011;39538;52.196;9.892;2022-11-04T03:51:29;5.33;;;5.20;;
16693;SDS011;39538;52.196;9.892;2022-11-04T03:53:56;5.27;;;5.13;;
16693;SDS011;39538;52.196;9.892;2022-11-04T03:56:28;2.97;;;2.87;;
16693;SDS011;39538;52.196;9.892;2022-11-04T03:59:11;1.47;;;1.37;;
16693;SDS011;39538;52.196;9.892;2022-11-04T04:01:53;1.53;;;1.43;;
16693;SDS011;39538;52.196;9.892;2022-11-04T04:04:26;1.87;;;1.77;;
16693;SDS011;39538;52.196;9.892;2022-11-04T04:06:56;3.67;;;3.37;;
16693;SDS011;39538;52.196;9.892;2022-11-04T04:09:30;3.60;;;2.40;;
16693;SDS011;39538;52.196;9.892;2022-11-04T04:12:04;3.03;;;2.83;;
16693;SDS011;39538;52.196;9.892;2022-11-04T04:14:37;3.70;;;3.47;;
16693;SDS011;39538;52.196;9.892;2022-11-04T04:17:07;1.80;;;1.70;;
16693;SDS011;39538;52.196;9.892;2022-11-04T04:19:40;1.70;;;1.53;;
16693;SDS011;39538;52.196;9.892;2022-11-04T04:22:11;1.50;;;1.40;;
16693;SDS011;39538;52.196;9.892;2022-11-04T04:24:41;1.20;;;1.10;;
16693;SDS011;39538;52.196;9.892;2022-11-04T04:27:29;1.27;;;1.17;;
16693;SDS011;39538;52.196;9.892;2022-11-04T04:29:59;2.70;;;1.20;;
16693;SDS011;39538;52.196;9.892;2022-11-04T04:32:31;1.70;;;1.60;;
16693;SDS011;39538;52.196;9.892;2022-11-04T04:35:06;2.73;;;2.40;;
16693;SDS011;39538;52.196;9.892;2022-11-04T04:37:52;1.20;;;1.20;;
16693;SDS011;39538;52.196;9.892;2022-11-04T04:40:40;1.87;;;1.77;;
16693;SDS011;39538;52.196;9.892;2022-11-04T04:43:34;1.40;;;1.10;;
16693;SDS011;39538;52.196;9.892;2022-11-04T04:46:19;1.33;;;1.23;;
16693;SDS011;39538;52.196;9.892;2022-11-04T04:48:47;3.50;;;1.30;;
16693;SDS011;39538;52.196;9.892;2022-11-04T04:51:14;1.10;;;1.10;;
16693;SDS011;39538;52.196;9.892;2022-11-04T04:53:41;1.40;;;1.30;;
16693;SDS011;39538;52.196;9.892;2022-11-04T04:56:08;1.70;;;1.30;;
16693;SDS011;39538;52.196;9.892;2022-11-04T04:58:34;3.33;;;1.43;;
16693;SDS011;39538;52.196;9.892;2022-11-04T05:01:02;1.50;;;1.40;;
16693;SDS011;39538;52.196;9.892;2022-11-04T05:03:29;1.83;;;1.73;;
16693;SDS011;39538;52.196;9.892;2022-11-04T05:05:57;1.40;;;1.30;;
16693;SDS011;39538;52.196;9.892;2022-11-04T05:08:26;2.50;;;2.13;;
16693;SDS011;39538;52.196;9.892;2022-11-04T05:10:52;1.40;;;1.30;;
16693;SDS011;39538;52.196;9.892;2022-11-04T05:13:19;1.60;;;1.47;;
16693;SDS011;39538;52.196;9.892;2022-11-04T05:15:53;1.37;;;1.20;;
16693;SDS011;39538;52.196;9.892;2022-11-04T05:18:20;1.80;;;1.50;;
16693;SDS011;39538;52.196;9.892;2022-11-04T05:20:46;1.37;;;1.27;;
16693;SDS011;39538;52.196;9.892;2022-11-04T05:23:13;1.73;;;1.23;;
16693;SDS011;39538;52.196;9.892;2022-11-04T05:25:41;1.73;;;1.63;;
16693;SDS011;39538;52.196;9.892;2022-11-04T05:28:07;1.43;;;1.33;;
16693;SDS011;39538;52.196;9.892;2022-11-04T05:30:34;1.70;;;1.60;;
16693;SDS011;39538;52.196;9.892;2022-11-04T05:33:01;2.23;;;2.00;;
16693;SDS011;39538;52.196;9.892;2022-11-04T05:35:28;2.63;;;2.43;;
16693;SDS011;39538;52.196;9.892;2022-11-04T05:37:55;2.50;;;2.30;;
16693;SDS011;39538;52.196;9.892;2022-11-04T05:40:22;2.03;;;1.93;;
16693;SDS011;39538;52.196;9.892;2022-11-04T05:42:49;2.13;;;1.93;;
16693;SDS011;39538;52.196;9.892;2022-11-04T05:45:16;1.60;;;1.50;;
16693;SDS011;39538;52.196;9.892;2022-11-04T05:47:43;2.03;;;1.93;;
16693;SDS011;39538;52.196;9.892;2022-11-04T05:50:10;2.03;;;1.93;;
16693;SDS011;39538;52.196;9.892;2022-11-04T05:52:36;2.60;;;2.00;;
16693;SDS011;39538;52.196;9.892;2022-11-04T05:55:03;1.57;;;1.47;;
16693;SDS011;39538;52.196;9.892;2022-11-04T05:57:30;1.73;;;1.63;;
16693;SDS011;39538;52.196;9.892;2022-11-04T06:00:01;1.50;;;1.40;;
16693;SDS011;39538;52.196;9.892;2022-11-04T06:02:27;1.73;;;1.57;;
16693;SDS011;39538;52.196;9.892;2022-11-04T06:04:54;1.83;;;1.50;;
16693;SDS011;39538;52.196;9.892;2022-11-04T06:07:21;1.80;;;1.70;;
16693;SDS011;39538;52.196;9.892;2022-11-04T06:09:47;2.63;;;2.43;;
16693;SDS011;39538;52.196;9.892;2022-11-04T06:12:14;1.80;;;1.70;;
16693;SDS011;39538;52.196;9.892;2022-11-04T06:14:42;2.53;;;2.33;;
16693;SDS011;39538;52.196;9.892;2022-11-04T06:17:11;2.27;;;2.03;;
16693;SDS011;39538;52.196;9.892;2022-11-04T06:19:39;1.47;;;1.30;;
16693;SDS011;39538;52.196;9.892;2022-11-04T06:22:07;2.40;;;1.80;;
16693;SDS011;39538;52.196;9.892;2022-11-04T06:24:34;1.70;;;1.60;;
16693;SDS011;39538;52.196;9.892;2022-11-04T06:27:01;1.70;;;1.60;;
16693;SDS011;39538;52.196;9.892;2022-11-04T06:29:27;1.43;;;1.33;;
16693;SDS011;39538;52.196;9.892;2022-11-04T06:31:54;1.67;;;1.57;;
16693;SDS011;39538;52.196;9.892;2022-11-04T06:34:22;1.97;;;1.87;;
16693;SDS011;39538;52.196;9.892;2022-11-04T06:36:49;1.50;;;1.30;;
16693;SDS011;39538;52.196;9.892;2022-11-04T06:39:16;1.50;;;1.40;;
16693;SDS011;39538;52.196;9.892;2022-11-04T06:41:42;1.47;;;1.20;;
16693;SDS011;39538;52.196;9.892;2022-11-04T06:44:09;1.77;;;1.67;;
16693;SDS011;39538;52.196;9.892;2022-11-04T06:46:36;1.87;;;1.63;;
16693;SDS011;39538;52.196;9.892;2022-11-04T06:49:04;1.63;;;1.53;;
16693;SDS011;39538;52.196;9.892;2022-11-04T06:51:33;1.37;;;1.30;;
16693;SDS011;39538;52.196;9.892;2022-11-04T06:54:00;1.50;;;1.40;;
16693;SDS011;39538;52.196;9.892;2022-11-04T06:56:26;2.03;;;1.90;;
16693;SDS011;39538;52.196;9.892;2022-11-04T06:58:53;3.60;;;1.60;;
16693;SDS011;39538;52.196;9.892;2022-11-04T07:01:21;4.83;;;2.10;;
16693;SDS011;39538;52.196;9.892;2022-11-04T07:03:50;2.83;;;2.63;;
16693;SDS011;39538;52.196;9.892;2022-11-04T07:06:17;3.43;;;2.27;;
16693;SDS011;39538;52.196;9.892;2022-11-04T07:08:46;1.67;;;1.57;;
16693;SDS011;39538;52.196;9.892;2022-11-04T07:11:13;2.30;;;1.63;;
16693;SDS011;39538;52.196;9.892;2022-11-04T07:13:41;1.43;;;1.33;;
16693;SDS011;39538;52.196;9.892;2022-11-04T07:16:07;3.60;;;2.00;;
16693;SDS011;39538;52.196;9.892;2022-11-04T07:18:34;2.83;;;1.77;;
16693;SDS011;39538;52.196;9.892;2022-11-04T07:21:02;2.40;;;1.77;;
16693;SDS011;39538;52.196;9.892;2022-11-04T07:23:29;2.47;;;1.63;;
16693;SDS011;39538;52.196;9.892;2022-11-04T07:25:59;2.70;;;1.70;;
16693;SDS011;39538;52.196;9.892;2022-11-04T07:28:26;4.80;;;1.60;;
16693;SDS011;39538;52.196;9.892;2022-11-04T07:30:54;2.27;;;1.90;;
16693;SDS011;39538;52.196;9.892;2022-11-04T07:33:22;2.47;;;2.00;;
16693;SDS011;39538;52.196;9.892;2022-11-04T07:35:49;1.93;;;1.77;;
16693;SDS011;39538;52.196;9.892;2022-11-04T07:38:17;4.30;;;2.37;;
16693;SDS011;39538;52.196;9.892;2022-11-04T07:40:44;1.80;;;1.70;;
16693;SDS011;39538;52.196;9.892;2022-11-04T07:43:12;2.40;;;1.60;;
16693;SDS011;39538;52.196;9.892;2022-11-04T07:45:38;6.43;;;2.53;;
16693;SDS011;39538;52.196;9.892;2022-11-04T07:48:05;1.40;;;1.30;;
16693;SDS011;39538;52.196;9.892;2022-11-04T07:50:33;2.40;;;2.00;;
16693;SDS011;39538;52.196;9.892;2022-11-04T07:52:59;7.53;;;2.57;;
16693;SDS011;39538;52.196;9.892;2022-11-04T07:55:26;1.83;;;1.60;;
16693;SDS011;39538;52.196;9.892;2022-11-04T07:57:53;2.87;;;1.30;;
16693;SDS011;39538;52.196;9.892;2022-11-04T08:00:21;2.93;;;1.80;;
16693;SDS011;39538;52.196;9.892;2022-11-04T08:02:48;1.83;;;1.23;;
16693;SDS011;39538;52.196;9.892;2022-11-04T08:05:15;1.30;;;1.10;;
16693;SDS011;39538;52.196;9.892;2022-11-04T08:07:41;3.27;;;1.20;;
16693;SDS011;39538;52.196;9.892;2022-11-04T08:10:08;3.60;;;1.10;;
16693;SDS011;39538;52.196;9.892;2022-11-04T08:12:35;0.87;;;0.87;;
16693;SDS011;39538;52.196;9.892;2022-11-04T08:15:03;2.47;;;1.53;;
16693;SDS011;39538;52.196;9.892;2022-11-04T08:17:32;1.40;;;1.33;;
16693;SDS011;39538;52.196;9.892;2022-11-04T08:19:59;1.60;;;1.10;;
16693;SDS011;39538;52.196;9.892;2022-11-04T08:22:26;3.00;;;1.80;;
16693;SDS011;39538;52.196;9.892;2022-11-04T08:24:52;3.83;;;1.23;;
16693;SDS011;39538;52.196;9.892;2022-11-04T08:27:19;2.50;;;1.60;;
16693;SDS011;39538;52.196;9.892;2022-11-04T08:29:47;2.10;;;1.63;;
16693;SDS011;39538;52.196;9.892;2022-11-04T08:32:13;1.97;;;1.50;;
16693;SDS011;39538;52.196;9.892;2022-11-04T08:34:41;2.30;;;1.93;;
16693;SDS011;39538;52.196;9.892;2022-11-04T08:37:08;4.47;;;0.90;;
16693;SDS011;39538;52.196;9.892;2022-11-04T08:39:34;2.20;;;1.10;;
16693;SDS011;39538;52.196;9.892;2022-11-04T08:42:01;1.37;;;1.37;;
16693;SDS011;39538;52.196;9.892;2022-11-04T08:44:28;4.17;;;1.40;;
16693;SDS011;39538;52.196;9.892;2022-11-04T08:46:54;1.83;;;1.33;;
16693;SDS011;39538;52.196;9.892;2022-11-04T08:49:21;1.63;;;1.53;;
16693;SDS011;39538;52.196;9.892;2022-11-04T08:51:49;3.73;;;1.20;;
16693;SDS011;39538;52.196;9.892;2022-11-04T08:54:20;2.53;;;1.13;;
16693;SDS011;39538;52.196;9.892;2022-11-04T08:56:47;1.70;;;1.50;;
16693;SDS011;39538;52.196;9.892;2022-11-04T08:59:14;2.17;;;1.73;;
16693;SDS011;39538;52.196;9.892;2022-11-04T09:01:41;1.77;;;1.40;;
16693;SDS011;39538;52.196;9.892;2022-11-04T09:04:09;2.40;;;1.57;;
16693;SDS011;39538;52.196;9.892;2022-11-04T09:06:37;1.37;;;1.17;;
16693;SDS011;39538;52.196;9.892;2022-11-04T09:09:07;1.83;;;1.30;;
16693;SDS011;39538;52.196;9.892;2022-11-04T09:11:36;5.70;;;0.93;;
16693;SDS011;39538;52.196;9.892;2022-11-04T09:14:04;2.00;;;0.87;;
16693;SDS011;39538;52.196;9.892;2022-11-04T09:16:33;3.07;;;1.60;;
16693;SDS011;39538;52.196;9.892;2022-11-04T09:19:00;1.87;;;1.67;;
16693;SDS011;39538;52.196;9.892;2022-11-04T09:21:28;5.27;;;2.57;;
16693;SDS011;39538;52.196;9.892;2022-11-04T09:23:55;3.30;;;1.20;;
16693;SDS011;39538;52.196;9.892;2022-11-04T09:26:23;3.13;;;1.40;;
16693;SDS011;39538;52.196;9.892;2022-11-04T09:28:52;1.53;;;1.43;;
16693;SDS011;39538;52.196;9.892;2022-11-04T09:31:19;2.43;;;1.77;;
16693;SDS011;39538;52.196;9.892;2022-11-04T09:33:46;6.10;;;1.70;;
16693;SDS011;39538;52.196;9.892;2022-11-04T09:36:13;5.17;;;1.80;;
16693;SDS011;39538;52.196;9.892;2022-11-04T09:38:40;4.73;;;2.53;;
16693;SDS011;39538;52.196;9.892;2022-11-04T09:41:10;1.97;;;1.67;;
16693;SDS011;39538;52.196;9.892;2022-11-04T09:43:48;2.70;;;2.13;;
16693;SDS011;39538;52.196;9.892;2022-11-04T09:46:23;5.77;;;2.93;;
16693;SDS011;39538;52.196;9.892;2022-11-04T09:48:50;2.20;;;2.00;;
16693;SDS011;39538;52.196;9.892;2022-11-04T09:51:20;1.77;;;1.57;;
16693;SDS011;39538;52.196;9.892;2022-11-04T09:53:51;5.30;;;2.47;;
16693;SDS011;39538;52.196;9.892;2022-11-04T09:56:21;8.27;;;2.23;;
16693;SDS011;39538;52.196;9.892;2022-11-04T09:58:50;2.10;;;1.60;;
16693;SDS011;39538;52.196;9.892;2022-11-04T10:01:22;3.37;;;2.47;;
16693;SDS011;39538;52.196;9.892;2022-11-04T10:04:00;2.33;;;2.13;;
16693;SDS011;39538;52.196;9.892;2022-11-04T10:06:40;1.63;;;1.43;;
16693;SDS011;39538;52.196;9.892;2022-11-04T10:09:26;2.20;;;1.70;;
16693;SDS011;39538;52.196;9.892;2022-11-04T10:12:05;3.73;;;1.63;;
16693;SDS011;39538;52.196;9.892;2022-11-04T10:14:51;1.50;;;1.20;;
16693;SDS011;39538;52.196;9.892;2022-11-04T10:17:32;2.27;;;1.10;;
16693;SDS011;39538;52.196;9.892;2022-11-04T10:20:15;3.20;;;2.57;;
16693;SDS011;39538;52.196;9.892;2022-11-04T10:22:55;2.87;;;1.50;;
16693;SDS011;39538;52.196;9.892;2022-11-04T10:25:24;3.13;;;1.73;;
16693;SDS011;39538;52.196;9.892;2022-11-04T10:27:58;1.47;;;1.17;;
16693;SDS011;39538;52.196;9.892;2022-11-04T10:30:26;2.03;;;1.77;;
16693;SDS011;39538;52.196;9.892;2022-11-04T10:32:58;4.53;;;1.80;;
16693;SDS011;39538;52.196;9.892;2022-11-04T10:35:31;2.47;;;2.37;;
16693;SDS011;39538;52.196;9.892;2022-11-04T10:38:08;3.10;;;1.67;;
16693;SDS011;39538;52.196;9.892;2022-11-04T10:40:41;2.90;;;2.70;;
16693;SDS011;39538;52.196;9.892;2022-11-04T10:43:12;3.60;;;1.17;;
16693;SDS011;39538;52.196;9.892;2022-11-04T10:45:46;4.05;;;2.60;;
16693;SDS011;39538;52.196;9.892;2022-11-04T10:48:21;2.50;;;1.87;;
16693;SDS011;39538;52.196;9.892;2022-11-04T10:50:55;3.90;;;1.90;;
16693;SDS011;39538;52.196;9.892;2022-11-04T10:53:24;2.57;;;1.73;;
16693;SDS011;39538;52.196;9.892;2022-11-04T10:55:53;2.53;;;1.40;;
16693;SDS011;39538;52.196;9.892;2022-11-04T10:58:27;2.23;;;1.30;;
16693;SDS011;39538;52.196;9.892;2022-11-04T11:00:57;7.27;;;2.40;;
16693;SDS011;39538;52.196;9.892;2022-11-04T11:03:25;4.27;;;1.67;;
16693;SDS011;39538;52.196;9.892;2022-11-04T11:06:08;5.17;;;2.00;;
16693;SDS011;39538;52.196;9.892;2022-11-04T11:08:38;2.60;;;1.20;;
16693;SDS011;39538;52.196;9.892;2022-11-04T11:11:06;2.17;;;1.60;;
16693;SDS011;39538;52.196;9.892;2022-11-04T11:13:34;5.63;;;1.53;;
16693;SDS011;39538;52.196;9.892;2022-11-04T11:16:05;1.13;;;1.03;;
16693;SDS011;39538;52.196;9.892;2022-11-04T11:18:33;2.17;;;1.27;;
16693;SDS011;39538;52.196;9.892;2022-11-04T11:21:05;1.20;;;1.00;;
16693;SDS011;39538;52.196;9.892;2022-11-04T11:23:36;2.73;;;1.53;;
16693;SDS011;39538;52.196;9.892;2022-11-04T11:26:05;2.83;;;0.80;;
16693;SDS011;39538;52.196;9.892;2022-11-04T11:28:33;1.47;;;0.73;;
16693;SDS011;39538;52.196;9.892;2022-11-04T11:31:05;3.83;;;0.90;;
16693;SDS011;39538;52.196;9.892;2022-11-04T11:33:38;2.13;;;1.30;;
16693;SDS011;39538;52.196;9.892;2022-11-04T11:36:13;2.13;;;0.73;;
16693;SDS011;39538;52.196;9.892;2022-11-04T11:38:50;0.90;;;0.90;;
16693;SDS011;39538;52.196;9.892;2022-11-04T11:41:30;3.67;;;0.80;;
16693;SDS011;39538;52.196;9.892;2022-11-04T11:43:59;2.43;;;1.47;;
16693;SDS011;39538;52.196;9.892;2022-11-04T11:46:29;2.00;;;0.83;;
16693;SDS011;39538;52.196;9.892;2022-11-04T11:48:59;3.93;;;1.63;;
16693;SDS011;39538;52.196;9.892;2022-11-04T11:51:27;3.07;;;1.40;;
16693;SDS011;39538;52.196;9.892;2022-11-04T11:53:59;2.67;;;1.10;;
16693;SDS011;39538;52.196;9.892;2022-11-04T11:56:34;1.30;;;0.97;;
16693;SDS011;39538;52.196;9.892;2022-11-04T11:59:11;2.30;;;1.33;;
16693;SDS011;39538;52.196;9.892;2022-11-04T12:01:44;1.73;;;1.07;;
16693;SDS011;39538;52.196;9.892;2022-11-04T12:04:15;3.67;;;1.07;;
16693;SDS011;39538;52.196;9.892;2022-11-04T12:06:43;2.43;;;1.13;;
16693;SDS011;39538;52.196;9.892;2022-11-04T12:09:20;4.67;;;1.43;;
16693;SDS011;39538;52.196;9.892;2022-11-04T12:11:58;4.80;;;1.00;;
16693;SDS011;39538;52.196;9.892;2022-11-04T12:14:41;1.53;;;1.10;;
16693;SDS011;39538;52.196;9.892;2022-11-04T12:17:23;1.43;;;0.90;;
16693;SDS011;39538;52.196;9.892;2022-11-04T12:20:14;2.93;;;0.93;;
16693;SDS011;39538;52.196;9.892;2022-11-04T12:22:51;1.20;;;1.00;;
16693;SDS011;39538;52.196;9.892;2022-11-04T12:25:23;2.87;;;1.83;;
16693;SDS011;39538;52.196;9.892;2022-11-04T12:27:58;1.20;;;0.90;;
16693;SDS011;39538;52.196;9.892;2022-11-04T12:30:32;1.43;;;1.00;;
16693;SDS011;39538;52.196;9.892;2022-11-04T12:33:08;2.27;;;1.20;;
16693;SDS011;39538;52.196;9.892;2022-11-04T12:35:50;1.13;;;1.00;;
16693;SDS011;39538;52.196;9.892;2022-11-04T12:41:22;2.23;;;1.30;;
16693;SDS011;39538;52.196;9.892;2022-11-04T12:43:55;3.30;;;1.60;;
16693;SDS011;39538;52.196;9.892;2022-11-04T12:46:31;4.83;;;1.10;;
16693;SDS011;39538;52.196;9.892;2022-11-04T12:49:08;2.40;;;2.20;;
16693;SDS011;39538;52.196;9.892;2022-11-04T12:51:47;1.90;;;1.30;;
16693;SDS011;39538;52.196;9.892;2022-11-04T12:54:22;2.20;;;1.30;;
16693;SDS011;39538;52.196;9.892;2022-11-04T12:57:03;2.60;;;1.30;;
16693;SDS011;39538;52.196;9.892;2022-11-04T12:59:41;0.70;;;0.70;;
16693;SDS011;39538;52.196;9.892;2022-11-04T13:02:19;1.67;;;1.40;;
16693;SDS011;39538;52.196;9.892;2022-11-04T13:04:54;2.97;;;1.07;;
16693;SDS011;39538;52.196;9.892;2022-11-04T13:07:27;5.00;;;1.63;;
16693;SDS011;39538;52.196;9.892;2022-11-04T13:09:57;1.80;;;1.47;;
16693;SDS011;39538;52.196;9.892;2022-11-04T13:12:29;1.53;;;0.90;;
16693;SDS011;39538;52.196;9.892;2022-11-04T13:15:00;1.00;;;0.97;;
16693;SDS011;39538;52.196;9.892;2022-11-04T13:17:31;2.13;;;0.93;;
16693;SDS011;39538;52.196;9.892;2022-11-04T13:20:02;1.70;;;0.80;;
16693;SDS011;39538;52.196;9.892;2022-11-04T13:22:38;1.37;;;1.00;;
16693;SDS011;39538;52.196;9.892;2022-11-04T13:25:11;1.37;;;0.80;;
16693;SDS011;39538;52.196;9.892;2022-11-04T13:27:42;1.23;;;0.80;;
16693;SDS011;39538;52.196;9.892;2022-11-04T13:30:15;1.70;;;0.87;;
16693;SDS011;39538;52.196;9.892;2022-11-04T13:32:47;1.47;;;1.37;;
16693;SDS011;39538;52.196;9.892;2022-11-04T13:35:24;0.60;;;0.60;;
16693;SDS011;39538;52.196;9.892;2022-11-04T13:37:56;2.53;;;0.97;;
16693;SDS011;39538;52.196;9.892;2022-11-04T13:40:28;1.57;;;0.90;;
16693;SDS011;39538;52.196;9.892;2022-11-04T13:43:05;1.03;;;0.70;;
16693;SDS011;39538;52.196;9.892;2022-11-04T13:45:58;1.60;;;0.80;;
16693;SDS011;39538;52.196;9.892;2022-11-04T13:48:26;1.87;;;0.80;;
16693;SDS011;39538;52.196;9.892;2022-11-04T13:50:58;0.60;;;0.60;;
16693;SDS011;39538;52.196;9.892;2022-11-04T13:53:38;2.87;;;1.30;;
16693;SDS011;39538;52.196;9.892;2022-11-04T13:56:07;1.43;;;1.10;;
16693;SDS011;39538;52.196;9.892;2022-11-04T13:58:34;3.70;;;0.90;;
16693;SDS011;39538;52.196;9.892;2022-11-04T14:01:10;1.73;;;1.03;;
16693;SDS011;39538;52.196;9.892;2022-11-04T14:03:39;1.47;;;0.90;;
16693;SDS011;39538;52.196;9.892;2022-11-04T14:06:18;1.30;;;1.00;;
16693;SDS011;39538;52.196;9.892;2022-11-04T14:09:35;1.07;;;1.00;;
16693;SDS011;39538;52.196;9.892;2022-11-04T14:12:33;0.90;;;0.80;;
16693;SDS011;39538;52.196;9.892;2022-11-04T14:15:08;1.83;;;1.20;;
16693;SDS011;39538;52.196;9.892;2022-11-04T14:20:32;1.20;;;1.10;;
16693;SDS011;39538;52.196;9.892;2022-11-04T14:23:03;0.87;;;0.77;;
16693;SDS011;39538;52.196;9.892;2022-11-04T14:25:32;1.97;;;0.97;;
16693;SDS011;39538;52.196;9.892;2022-11-04T14:28:01;0.83;;;0.70;;
16693;SDS011;39538;52.196;9.892;2022-11-04T14:30:44;1.00;;;0.90;;
16693;SDS011;39538;52.196;9.892;2022-11-04T14:39:06;1.53;;;0.77;;
16693;SDS011;39538;52.196;9.892;2022-11-04T14:41:57;1.57;;;0.73;;
16693;SDS011;39538;52.196;9.892;2022-11-04T14:44:27;1.67;;;1.10;;
16693;SDS011;39538;52.196;9.892;2022-11-04T14:46:56;1.47;;;1.10;;
16693;SDS011;39538;52.196;9.892;2022-11-04T14:49:29;0.67;;;0.67;;
16693;SDS011;39538;52.196;9.892;2022-11-04T14:52:02;0.93;;;0.90;;
16693;SDS011;39538;52.196;9.892;2022-11-04T14:54:31;2.53;;;1.20;;
16693;SDS011;39538;52.196;9.892;2022-11-04T14:57:06;1.97;;;1.00;;
16693;SDS011;39538;52.196;9.892;2022-11-04T14:59:38;3.77;;;1.10;;
16693;SDS011;39538;52.196;9.892;2022-11-04T15:02:07;3.23;;;1.90;;
16693;SDS011;39538;52.196;9.892;2022-11-04T15:04:43;2.63;;;1.40;;
16693;SDS011;39538;52.196;9.892;2022-11-04T15:07:20;1.47;;;1.00;;
16693;SDS011;39538;52.196;9.892;2022-11-04T15:09:51;1.57;;;1.20;;
16693;SDS011;39538;52.196;9.892;2022-11-04T15:12:18;1.73;;;1.30;;
16693;SDS011;39538;52.196;9.892;2022-11-04T15:15:17;3.97;;;2.50;;
16693;SDS011;39538;52.196;9.892;2022-11-04T15:17:55;3.17;;;1.77;;
16693;SDS011;39538;52.196;9.892;2022-11-04T15:20:24;1.67;;;1.57;;
16693;SDS011;39538;52.196;9.892;2022-11-04T15:22:54;2.37;;;1.27;;
16693;SDS011;39538;52.196;9.892;2022-11-04T15:25:25;3.83;;;1.23;;